Time;durP1;ratioP1;P1;durP2;ratioP2;P2;SDS_P1;SDS_P2;PMS_P1;PMS_P2;Temp;Humidity;BMP_temperature;BMP_pressure;BME280_temperature;BME280_humidity;BME280_pressure;Samples;Min_cycle;Max_cycle;Signal;HPM_P1;HPM_P2
2021/09/01 00:02:16;;;;;;;4.78;2.50;;;;;;;22.54;51.85;103295.34;5054689;28;20048;-69
2021/09/01 00:04:42;;;;;;;5.15;2.05;;;;;;;22.53;51.86;103286.50;5071111;28;20039;-68
2021/09/01 00:07:07;;;;;;;3.13;2.10;;;;;;;22.54;51.99;103279.28;5061368;28;20032;-69
2021/09/01 00:09:33;;;;;;;3.00;1.98;;;;;;;22.53;52.05;103283.81;5066480;28;20472;-69
2021/09/01 00:11:59;;;;;;;3.92;2.10;;;;;;;22.53;51.97;103283.81;5060044;28;20040;-69
2021/09/01 00:14:25;;;;;;;4.13;2.63;;;;;;;22.53;51.90;103277.63;5070995;28;20039;-68
2021/09/01 00:16:51;;;;;;;3.28;2.20;;;;;;;22.53;52.04;103286.50;5067506;28;20380;-69
2021/09/01 00:19:16;;;;;;;2.95;2.00;;;;;;;22.53;52.28;103277.63;5062794;28;20044;-69
2021/09/01 00:21:42;;;;;;;3.78;2.40;;;;;;;22.53;51.90;103274.94;5070470;28;20380;-68
2021/09/01 00:24:08;;;;;;;4.45;2.05;;;;;;;22.53;52.33;103273.09;5070454;28;20073;-68
2021/09/01 00:26:35;;;;;;;3.13;2.08;;;;;;;22.53;52.04;103273.09;5065450;28;20040;-68
2021/09/01 00:29:00;;;;;;;3.28;2.22;;;;;;;22.53;52.26;103270.44;5070470;28;20060;-68
2021/09/01 00:31:26;;;;;;;4.50;2.20;;;;;;;22.53;51.97;103270.44;5070054;28;20121;-68
2021/09/01 00:33:52;;;;;;;3.70;2.05;;;;;;;22.53;52.27;103273.09;5070384;28;20044;-69
2021/09/01 00:36:18;;;;;;;2.80;1.70;;;;;;;22.53;52.34;103272.28;5070089;28;20036;-68
2021/09/01 00:38:45;;;;;;;2.85;2.00;;;;;;;22.53;52.31;103278.47;5069572;28;20029;-68
2021/09/01 00:41:18;;;;;;;4.35;1.75;;;;;;;22.52;52.52;103276.78;5067429;28;20071;-68
2021/09/01 00:43:46;;;;;;;4.05;2.00;;;;;;;22.52;52.08;103276.78;5069906;28;20081;-68
2021/09/01 00:46:11;;;;;;;3.30;1.70;;;;;;;22.53;52.38;103274.94;5069617;28;20156;-68
2021/09/01 00:48:37;;;;;;;3.75;2.03;;;;;;;22.52;52.24;103274.09;5069859;28;20139;-68
2021/09/01 00:51:04;;;;;;;3.58;2.08;;;;;;;22.53;52.29;103277.63;5068656;28;20052;-68
2021/09/01 00:53:32;;;;;;;3.33;1.92;;;;;;;22.52;52.19;103275.94;5070299;28;20047;-68
2021/09/01 00:55:58;;;;;;;5.25;1.90;;;;;;;22.53;52.28;103280.28;5069772;28;20059;-68
2021/09/01 00:58:24;;;;;;;4.18;1.80;;;;;;;22.52;52.57;103282.13;5069751;28;20074;-68
2021/09/01 01:03:34;;;;;;;4.45;1.80;;;;;;;22.51;52.60;103291.16;5070399;28;20090;-68
2021/09/01 01:05:59;;;;;;;2.63;1.73;;;;;;;22.52;52.33;103284.81;5062440;28;20028;-68
2021/09/01 01:08:29;;;;;;;3.90;2.22;;;;;;;22.51;52.85;103280.47;5070745;28;20527;-68
2021/09/01 01:10:55;;;;;;;5.25;2.00;;;;;;;22.52;52.49;103287.47;5069211;28;20644;-68
2021/09/01 01:13:20;;;;;;;3.92;1.90;;;;;;;22.53;52.82;103282.97;5052068;28;20064;-68
2021/09/01 01:15:46;;;;;;;3.30;1.90;;;;;;;22.53;53.05;103282.97;5069508;28;20063;-68
2021/09/01 01:18:12;;;;;;;4.25;1.88;;;;;;;22.52;52.96;103279.47;5069452;28;20058;-68
2021/09/01 01:20:39;;;;;;;3.78;1.80;;;;;;;22.53;53.35;103281.13;5064563;28;20459;-68
2021/09/01 01:23:06;;;;;;;2.65;1.80;;;;;;;22.53;53.39;103280.28;5051182;28;20786;-68
2021/09/01 01:25:39;;;;;;;5.93;2.10;;;;;;;22.53;53.59;103280.28;5069312;28;20032;-68
2021/09/01 01:28:10;;;;;;;5.38;1.98;;;;;;;22.52;53.51;103284.81;5068939;28;20323;-68
2021/09/01 01:30:36;;;;;;;5.18;2.15;;;;;;;22.53;54.03;103275.78;5068648;28;20044;-68
2021/09/01 01:33:02;;;;;;;4.55;1.77;;;;;;;22.53;53.80;103273.09;5047930;28;20029;-68
2021/09/01 01:35:37;;;;;;;4.68;2.20;;;;;;;22.54;54.10;103273.94;5064230;28;20036;-68
2021/09/01 01:38:09;;;;;;;5.70;1.90;;;;;;;22.52;54.03;103271.44;5065749;28;20060;-68
2021/09/01 01:40:37;;;;;;;4.65;1.73;;;;;;;22.54;54.32;103273.94;5064291;28;20128;-68
2021/09/01 01:43:03;;;;;;;4.05;2.00;;;;;;;22.54;54.17;103273.94;5050743;28;20029;-68
2021/09/01 01:45:39;;;;;;;4.97;2.08;;;;;;;22.52;54.31;103268.75;5069046;28;20098;-68
2021/09/01 01:48:06;;;;;;;4.88;1.88;;;;;;;22.54;54.48;103266.75;5068853;28;20051;-68
2021/09/01 01:50:32;;;;;;;3.25;1.80;;;;;;;22.53;54.31;103267.75;5068705;28;20032;-68
2021/09/01 01:52:58;;;;;;;3.97;1.70;;;;;;;22.54;54.26;103265.91;5068851;28;20036;-68
2021/09/01 01:55:23;;;;;;;4.30;2.08;;;;;;;22.53;54.42;103270.44;5069354;28;20043;-68
2021/09/01 01:57:49;;;;;;;4.35;1.70;;;;;;;22.53;54.12;103265.09;5068070;28;20037;-68
2021/09/01 02:00:15;;;;;;;4.30;1.88;;;;;;;22.53;54.33;103275.78;5050511;28;20059;-68
2021/09/01 02:02:41;;;;;;;4.45;2.17;;;;;;;22.54;54.17;103268.59;5068914;28;20039;-68
2021/09/01 02:05:07;;;;;;;4.85;2.20;;;;;;;22.54;54.43;103260.56;5068519;28;20040;-68
2021/09/01 02:07:33;;;;;;;4.00;1.63;;;;;;;22.53;54.25;103259.72;5069267;28;20051;-68
2021/09/01 02:09:59;;;;;;;5.68;2.22;;;;;;;22.52;54.31;103255.38;5068056;28;20396;-68
2021/09/01 02:12:28;;;;;;;4.32;1.80;;;;;;;22.53;54.18;103261.56;5068609;28;20112;-68
2021/09/01 02:14:58;;;;;;;4.15;1.88;;;;;;;22.52;54.32;103268.75;5068321;28;20059;-68
2021/09/01 02:17:24;;;;;;;3.75;1.88;;;;;;;22.53;54.61;103270.44;5057344;28;20064;-68
2021/09/01 02:19:50;;;;;;;3.67;1.85;;;;;;;22.52;54.55;103267.91;5068502;28;20041;-68
2021/09/01 02:22:16;;;;;;;3.80;1.67;;;;;;;22.53;54.38;103274.94;5068721;28;20551;-68
2021/09/01 02:24:41;;;;;;;2.83;1.58;;;;;;;22.52;54.48;103268.75;5069093;28;20120;-68
2021/09/01 02:27:07;;;;;;;3.65;1.55;;;;;;;22.53;54.27;103272.28;5068472;28;20046;-68
2021/09/01 02:29:32;;;;;;;3.90;1.98;;;;;;;22.52;54.27;103274.09;5073502;28;20514;-68
2021/09/01 02:31:58;;;;;;;3.65;1.73;;;;;;;22.53;54.72;103266.91;5072592;28;20099;-68
2021/09/01 02:34:23;;;;;;;5.25;2.00;;;;;;;22.52;54.47;103263.41;5054728;28;20443;-68
2021/09/01 02:36:49;;;;;;;3.42;1.60;;;;;;;22.52;54.41;103267.91;5072052;28;20468;-68
2021/09/01 02:39:14;;;;;;;2.78;1.40;;;;;;;22.53;54.38;103264.25;5076622;28;20052;-68
2021/09/01 02:41:40;;;;;;;4.22;1.67;;;;;;;22.52;54.36;103266.09;5092886;28;20025;-67
2021/09/01 02:44:05;;;;;;;5.43;1.80;;;;;;;22.53;54.46;103269.59;5084160;28;20040;-68
2021/09/01 02:46:31;;;;;;;3.00;1.70;;;;;;;22.52;54.56;103271.44;5086123;28;20084;-68
2021/09/01 02:48:56;;;;;;;4.20;1.52;;;;;;;22.51;54.72;103264.41;5074701;28;20059;-68
2021/09/01 02:51:21;;;;;;;3.55;1.50;;;;;;;22.51;54.28;103269.75;5092335;28;20035;-68
2021/09/01 02:53:47;;;;;;;2.90;1.58;;;;;;;22.52;54.41;103268.75;5091882;28;20072;-67
2021/09/01 02:56:12;;;;;;;2.78;1.38;;;;;;;22.51;54.55;103267.09;5092593;28;20032;-68
2021/09/01 02:58:38;;;;;;;3.08;1.30;;;;;;;22.51;54.64;103264.41;5092238;28;20032;-68
2021/09/01 03:01:03;;;;;;;3.63;1.63;;;;;;;22.52;54.35;103270.59;5073488;28;20040;-68
2021/09/01 03:03:29;;;;;;;3.55;1.52;;;;;;;22.51;54.33;103275.09;5091963;28;20027;-68
2021/09/01 03:05:54;;;;;;;5.32;1.50;;;;;;;22.51;54.46;103266.25;5092347;28;20463;-68
2021/09/01 03:08:20;;;;;;;1.90;1.20;;;;;;;22.52;54.57;103275.94;5092176;28;20165;-68
2021/09/01 03:10:45;;;;;;;2.70;1.25;;;;;;;22.51;54.63;103269.75;5057768;28;20036;-68
2021/09/01 03:13:11;;;;;;;2.97;1.73;;;;;;;22.51;54.57;103269.75;5090932;28;20532;-68
2021/09/01 03:15:36;;;;;;;3.58;1.50;;;;;;;22.51;54.48;103275.09;5092470;28;20170;-68
2021/09/01 03:18:02;;;;;;;4.32;1.55;;;;;;;22.50;54.65;103273.44;5092170;28;20036;-68
2021/09/01 03:20:28;;;;;;;2.97;1.20;;;;;;;22.50;54.70;103267.25;5091924;28;20032;-68
2021/09/01 03:22:53;;;;;;;2.63;1.27;;;;;;;22.50;54.62;103268.06;5092426;28;20038;-68
2021/09/01 03:25:19;;;;;;;4.35;1.50;;;;;;;22.50;54.66;103260.06;5091516;28;20093;-68
2021/09/01 03:27:44;;;;;;;2.45;1.48;;;;;;;22.51;54.46;103261.72;5091902;28;20040;-68
2021/09/01 03:30:10;;;;;;;3.42;1.30;;;;;;;22.50;54.40;103261.88;5073464;28;20039;-68
2021/09/01 03:32:36;;;;;;;2.05;1.23;;;;;;;22.51;54.56;103267.09;5092482;28;20028;-68
2021/09/01 03:35:02;;;;;;;2.97;1.33;;;;;;;22.50;54.40;103268.06;5091691;28;20056;-68
2021/09/01 03:37:28;;;;;;;3.88;1.35;;;;;;;22.50;54.76;103265.41;5090315;28;20368;-68
2021/09/01 03:39:53;;;;;;;2.85;1.45;;;;;;;22.50;54.57;103259.22;5063609;28;20120;-68
2021/09/01 03:42:19;;;;;;;2.55;1.30;;;;;;;22.50;54.71;103257.38;5070760;28;20139;-68
2021/09/01 03:44:44;;;;;;;3.25;1.38;;;;;;;22.49;54.89;103258.38;5070893;28;20105;-68
2021/09/01 03:47:10;;;;;;;3.95;1.23;;;;;;;22.49;54.76;103258.38;5070539;28;20380;-68
2021/09/01 03:49:35;;;;;;;3.50;1.30;;;;;;;22.49;54.49;103260.22;5071856;28;20043;-68
2021/09/01 03:52:01;;;;;;;2.63;1.17;;;;;;;22.49;54.53;103261.06;5071170;28;20029;-68
2021/09/01 03:54:27;;;;;;;3.08;1.45;;;;;;;22.49;54.74;103261.06;5071037;28;20464;-68
2021/09/01 03:56:52;;;;;;;3.33;1.23;;;;;;;22.48;54.79;103262.06;5070282;28;20129;-68
2021/09/01 03:59:18;;;;;;;1.77;1.10;;;;;;;22.49;54.63;103255.69;5071042;28;20025;-68
2021/09/01 04:01:43;;;;;;;3.45;1.42;;;;;;;22.48;54.57;103254.03;5053192;28;20392;-67
2021/09/01 04:04:09;;;;;;;4.95;1.40;;;;;;;22.48;54.70;103253.19;5053253;28;20032;-68
2021/09/01 04:06:34;;;;;;;3.60;1.40;;;;;;;22.49;54.86;103250.34;5052278;28;20473;-68
2021/09/01 04:09:01;;;;;;;3.20;1.27;;;;;;;22.49;54.76;103245.00;5070942;28;20101;-68
2021/09/01 04:11:27;;;;;;;2.60;1.30;;;;;;;22.48;54.89;103254.03;5070955;28;20029;-68
2021/09/01 04:13:53;;;;;;;2.78;1.27;;;;;;;22.49;54.94;103252.19;5053135;28;20028;-68
2021/09/01 04:16:19;;;;;;;3.47;1.35;;;;;;;22.49;54.77;103254.88;5069978;28;20499;-68
2021/09/01 04:18:44;;;;;;;2.05;1.10;;;;;;;22.49;54.85;103252.19;5070921;28;20040;-68
2021/09/01 04:21:10;;;;;;;4.40;1.30;;;;;;;22.48;54.82;103246.00;5070835;28;20037;-68
2021/09/01 04:23:35;;;;;;;2.63;1.20;;;;;;;22.48;54.60;103246.00;5070718;28;20028;-68
2021/09/01 04:26:02;;;;;;;2.78;1.10;;;;;;;22.49;54.85;103238.81;5032930;28;20044;-68
2021/09/01 04:28:27;;;;;;;2.13;1.10;;;;;;;22.49;54.94;103247.69;5065539;28;20041;-68
2021/09/01 04:30:52;;;;;;;2.42;1.05;;;;;;;22.49;54.64;103247.69;5052919;28;20389;-68
2021/09/01 04:33:18;;;;;;;2.75;1.15;;;;;;;22.48;54.84;103245.16;5070392;28;20036;-68
2021/09/01 04:35:44;;;;;;;3.33;1.38;;;;;;;22.48;54.65;103254.03;5051367;28;20476;-68
2021/09/01 04:38:10;;;;;;;2.50;1.10;;;;;;;22.48;54.69;103247.84;5069752;28;20036;-68
2021/09/01 04:40:35;;;;;;;2.92;1.20;;;;;;;22.48;54.84;103251.34;5061763;28;20045;-68
2021/09/01 04:43:01;;;;;;;2.67;1.20;;;;;;;22.48;54.85;103247.84;5082166;28;20082;-68
2021/09/01 04:45:26;;;;;;;1.45;0.85;;;;;;;22.49;54.97;103257.53;5071975;28;20696;-68
2021/09/01 04:47:52;;;;;;;3.72;1.30;;;;;;;22.48;54.94;103251.34;5090148;28;20035;-68
2021/09/01 04:50:18;;;;;;;2.90;1.23;;;;;;;22.47;54.77;103244.31;5054224;28;20040;-68
2021/09/01 04:52:43;;;;;;;3.55;1.15;;;;;;;22.47;54.62;103244.31;5090273;28;20036;-68
2021/09/01 04:55:09;;;;;;;2.35;0.90;;;;;;;22.47;54.68;103246.16;5090260;28;20491;-68
2021/09/01 04:57:35;;;;;;;2.05;1.05;;;;;;;22.47;54.62;103244.31;5089353;28;20039;-68
2021/09/01 05:00:01;;;;;;;3.10;1.10;;;;;;;22.46;54.71;103245.31;5090309;28;20485;-68
2021/09/01 05:02:26;;;;;;;3.60;1.30;;;;;;;22.48;54.88;103239.81;5082079;28;20124;-68
2021/09/01 05:04:52;;;;;;;2.42;1.02;;;;;;;22.47;54.92;103244.31;5090709;28;20039;-68
2021/09/01 05:07:17;;;;;;;2.05;1.13;;;;;;;22.47;54.88;103247.00;5088751;28;20046;-68
2021/09/01 05:09:43;;;;;;;1.98;1.00;;;;;;;22.47;54.76;103243.50;5089918;28;20028;-68
2021/09/01 05:12:09;;;;;;;2.15;1.15;;;;;;;22.46;54.71;103245.31;5089055;28;20053;-68
2021/09/01 05:14:34;;;;;;;2.97;1.10;;;;;;;22.47;54.78;103246.16;5090182;28;20444;-68
2021/09/01 05:17:00;;;;;;;2.55;1.20;;;;;;;22.47;54.77;103249.69;5088674;28;20042;-68
2021/09/01 05:19:25;;;;;;;1.55;0.93;;;;;;;22.46;54.48;103245.31;5089443;28;20513;-68
2021/09/01 05:21:53;;;;;;;2.70;1.02;;;;;;;22.47;55.01;103251.50;5070941;28;20077;-68
2021/09/01 05:24:53;;;;;;;2.40;1.15;;;;;;;22.43;54.77;103259.00;5089514;28;20036;-68
2021/09/01 05:27:20;;;;;;;2.35;1.10;;;;;;;22.46;55.00;103253.34;5088290;28;20497;-68
2021/09/01 05:29:48;;;;;;;3.40;1.10;;;;;;;22.47;54.84;103256.88;5089391;28;20035;-68
2021/09/01 05:32:27;;;;;;;2.72;1.20;;;;;;;22.43;54.89;103248.31;5088042;28;20020;-68
2021/09/01 05:34:55;;;;;;;2.03;1.10;;;;;;;22.46;54.63;103256.03;5081823;28;20079;-68
2021/09/01 05:37:21;;;;;;;1.80;0.95;;;;;;;22.45;54.58;103257.03;5069697;28;20028;-68
2021/09/01 05:39:50;;;;;;;2.35;1.10;;;;;;;22.45;54.74;103259.69;5089302;28;20101;-68
2021/09/01 05:42:20;;;;;;;1.70;0.90;;;;;;;22.45;55.07;103265.03;5077803;28;20039;-68
2021/09/01 05:44:47;;;;;;;2.58;1.30;;;;;;;22.46;55.12;103271.22;5087413;28;20501;-68
2021/09/01 05:47:15;;;;;;;3.03;1.33;;;;;;;22.45;54.72;103273.06;5080354;28;20032;-68
2021/09/01 05:49:42;;;;;;;2.80;1.02;;;;;;;22.45;54.54;103270.41;5089345;28;20039;-67
2021/09/01 05:52:09;;;;;;;2.70;1.10;;;;;;;22.46;54.93;103272.06;5068411;28;20054;-68
2021/09/01 05:54:35;;;;;;;2.70;1.20;;;;;;;22.45;54.91;103274.91;5089338;28;20036;-68
2021/09/01 05:57:09;;;;;;;2.95;1.20;;;;;;;22.42;54.81;103282.25;5070009;28;20032;-68
2021/09/01 06:00:02;;;;;;;2.08;1.00;;;;;;;22.41;54.66;103287.75;5089187;28;20464;-68
2021/09/01 06:02:41;;;;;;;2.05;1.10;;;;;;;22.41;55.13;103291.28;5085624;28;20036;-68
2021/09/01 06:05:09;;;;;;;2.88;1.00;;;;;;;22.45;54.93;103288.28;5088598;28;20032;-69
2021/09/01 06:07:39;;;;;;;2.42;0.90;;;;;;;22.44;54.69;103290.13;5088716;28;20111;-68
2021/09/01 06:10:04;;;;;;;2.50;1.30;;;;;;;22.45;54.78;103290.94;5089002;28;20058;-69
2021/09/01 06:12:30;;;;;;;2.40;1.00;;;;;;;22.44;54.64;103289.28;5088149;28;20051;-68
2021/09/01 06:14:57;;;;;;;2.38;1.05;;;;;;;22.45;55.02;103290.94;5088757;28;20071;-68
2021/09/01 06:17:23;;;;;;;3.05;1.38;;;;;;;22.45;54.83;103293.63;5087793;28;20485;-68
2021/09/01 06:19:49;;;;;;;2.03;0.93;;;;;;;22.44;54.93;103286.59;5088745;28;20139;-68
2021/09/01 06:22:15;;;;;;;2.15;1.10;;;;;;;22.44;55.08;103282.09;5088010;28;20024;-68
2021/09/01 06:24:41;;;;;;;1.90;1.10;;;;;;;22.43;55.02;103288.44;5098241;28;20123;-69
2021/09/01 06:27:08;;;;;;;2.15;1.25;;;;;;;22.44;54.98;103287.44;5089554;28;20063;-69
2021/09/01 06:29:34;;;;;;;3.78;1.20;;;;;;;22.44;55.28;103286.59;5088898;28;20036;-68
2021/09/01 06:31:59;;;;;;;2.75;1.20;;;;;;;22.45;55.21;103293.63;5088174;28;20032;-68
2021/09/01 06:34:25;;;;;;;4.85;1.02;;;;;;;22.44;55.51;103290.13;5088371;28;20055;-68
2021/09/01 06:36:51;;;;;;;4.57;1.60;;;;;;;22.44;55.37;103290.13;5086736;28;20519;-68
2021/09/01 06:39:16;;;;;;;4.78;1.17;;;;;;;22.44;55.70;103292.78;5098245;28;20055;-67
2021/09/01 06:41:42;;;;;;;2.25;1.20;;;;;;;22.45;55.68;103286.44;5105640;28;20042;-69
2021/09/01 06:44:08;;;;;;;2.55;1.25;;;;;;;22.45;55.82;103289.13;5106192;28;20122;-70
2021/09/01 06:46:33;;;;;;;1.70;1.10;;;;;;;22.46;55.70;103293.47;5064800;28;20068;-69
2021/09/01 06:48:59;;;;;;;3.90;1.60;;;;;;;22.47;55.91;103295.16;5084987;28;20135;-69
2021/09/01 06:51:25;;;;;;;5.68;1.85;;;;;;;22.48;55.63;103304.84;5065278;28;20047;-67
2021/09/01 06:53:50;;;;;;;6.15;1.60;;;;;;;22.49;55.98;103300.34;5085324;28;20039;-67
2021/09/01 06:56:16;;;;;;;6.15;1.70;;;;;;;22.51;55.84;103301.84;5087754;28;20024;-68
2021/09/01 06:58:42;;;;;;;4.00;1.58;;;;;;;22.51;55.51;103306.38;5057950;28;20051;-68
2021/09/01 07:01:07;;;;;;;5.50;2.28;;;;;;;22.52;55.38;103297.34;5088027;28;20045;-66
2021/09/01 07:03:32;;;;;;;4.40;1.60;;;;;;;22.52;55.38;103303.53;5089894;28;20092;-66
2021/09/01 07:05:58;;;;;;;3.25;1.58;;;;;;;22.52;55.77;103306.22;5065393;28;20453;-66
2021/09/01 07:08:23;;;;;;;2.67;1.70;;;;;;;22.53;55.50;103307.03;5087287;28;20157;-67
2021/09/01 07:10:50;;;;;;;5.97;1.52;;;;;;;22.54;55.46;103306.88;5084245;28;20450;-67
2021/09/01 07:13:17;;;;;;;4.32;1.60;;;;;;;22.54;55.46;103320.25;5086874;28;20512;-66
2021/09/01 07:15:43;;;;;;;5.03;1.60;;;;;;;22.55;55.36;103315.75;5082104;28;20058;-67
2021/09/01 07:18:09;;;;;;;5.55;1.33;;;;;;;22.54;55.42;103322.94;5091315;28;20477;-67
2021/09/01 07:20:35;;;;;;;4.50;1.60;;;;;;;22.53;55.27;103310.56;5073505;28;20103;-66
2021/09/01 07:23:01;;;;;;;4.68;2.00;;;;;;;22.55;55.16;103318.44;5091034;28;20346;-66
2021/09/01 07:25:27;;;;;;;3.58;2.22;;;;;;;22.54;55.17;103317.59;5091063;28;20043;-66
2021/09/01 07:27:53;;;;;;;4.88;1.88;;;;;;;22.53;55.06;103318.59;5091501;28;20102;-66
2021/09/01 07:30:18;;;;;;;7.15;2.13;;;;;;;22.52;54.94;103322.25;5091150;28;20032;-66
2021/09/01 07:32:44;;;;;;;13.07;3.30;;;;;;;22.53;55.14;103313.22;5090432;28;20055;-65
2021/09/01 07:35:10;;;;;;;9.50;3.10;;;;;;;22.54;54.71;103327.44;5067982;28;20036;-66
2021/09/01 07:37:46;;;;;;;8.68;3.65;;;;;;;22.48;54.77;103315.56;5088848;28;20035;-66
2021/09/01 07:40:13;;;;;;;9.13;3.15;;;;;;;22.50;54.36;103318.06;5062243;28;20083;-66
2021/09/01 07:42:39;;;;;;;11.43;3.13;;;;;;;22.50;54.49;103326.09;5087168;28;20028;-65
2021/09/01 07:45:05;;;;;;;8.68;3.58;;;;;;;22.49;54.34;103324.41;5083107;28;20043;-66
2021/09/01 07:47:31;;;;;;;12.20;3.58;;;;;;;22.49;54.10;103325.25;5086488;28;20085;-65
2021/09/01 07:49:56;;;;;;;10.27;3.47;;;;;;;22.47;53.98;103326.41;5069310;28;20037;-65
2021/09/01 07:52:22;;;;;;;11.48;3.63;;;;;;;22.47;54.05;103323.72;5085042;28;20668;-65
2021/09/01 07:54:47;;;;;;;10.65;3.95;;;;;;;22.46;53.98;103330.91;5087544;28;20052;-66
2021/09/01 07:57:13;;;;;;;12.18;3.58;;;;;;;22.47;53.92;103324.56;5059220;28;20062;-65
2021/09/01 07:59:38;;;;;;;10.85;3.58;;;;;;;22.46;53.68;103328.25;5095561;28;20031;-65
2021/09/01 08:02:04;;;;;;;12.35;4.28;;;;;;;22.46;53.79;103332.75;5073341;28;20047;-66
2021/09/01 08:04:29;;;;;;;9.20;3.67;;;;;;;22.46;53.54;103332.75;5093028;28;20137;-66
2021/09/01 08:06:55;;;;;;;9.20;3.72;;;;;;;22.44;53.62;103332.06;5077331;28;20086;-66
2021/09/01 08:09:20;;;;;;;9.18;3.65;;;;;;;22.44;53.61;103330.22;5060446;28;20028;-65
2021/09/01 08:11:46;;;;;;;10.10;4.15;;;;;;;22.45;53.26;103328.41;5091240;28;20482;-65
2021/09/01 08:14:11;;;;;;;8.60;3.53;;;;;;;22.44;53.59;103327.56;5076623;28;20123;-65
2021/09/01 08:16:37;;;;;;;10.38;3.95;;;;;;;22.44;53.53;103335.59;5090407;28;20047;-65
2021/09/01 08:19:03;;;;;;;7.10;3.38;;;;;;;22.44;53.47;103332.91;5091110;28;20431;-65
2021/09/01 08:21:28;;;;;;;6.53;3.67;;;;;;;22.44;53.17;103338.25;5090319;28;20107;-66
2021/09/01 08:23:54;;;;;;;8.32;4.00;;;;;;;22.43;53.15;103339.25;5076560;28;20024;-65
2021/09/01 08:26:19;;;;;;;7.70;3.30;;;;;;;22.43;53.05;103336.59;5089365;28;20080;-66
2021/09/01 08:28:45;;;;;;;7.55;3.38;;;;;;;22.43;52.89;103339.25;5090117;28;20359;-66
2021/09/01 08:31:11;;;;;;;7.78;3.22;;;;;;;22.44;53.04;103340.09;5090640;28;20040;-66
2021/09/01 08:33:36;;;;;;;7.43;3.38;;;;;;;22.43;52.98;103341.94;5090113;28;20128;-66
2021/09/01 08:36:02;;;;;;;6.38;3.30;;;;;;;22.43;52.84;103352.63;5090664;28;20499;-66
2021/09/01 08:38:27;;;;;;;7.63;3.47;;;;;;;22.45;52.78;103349.78;5090345;28;20051;-65
2021/09/01 08:40:53;;;;;;;7.50;3.17;;;;;;;22.44;52.99;103350.78;5090338;28;20048;-65
2021/09/01 08:43:19;;;;;;;5.68;3.35;;;;;;;22.45;52.41;103357.81;5089805;28;20519;-65
2021/09/01 08:45:46;;;;;;;8.18;3.50;;;;;;;22.44;52.78;103356.97;5090178;28;20054;-65
2021/09/01 08:48:13;;;;;;;5.85;3.65;;;;;;;22.43;52.33;103355.31;5055711;28;20387;-65
2021/09/01 08:50:38;;;;;;;7.28;3.20;;;;;;;22.41;52.19;103344.75;5089647;28;20044;-65
2021/09/01 08:53:04;;;;;;;9.40;3.58;;;;;;;22.41;52.28;103343.91;5090378;28;20032;-66
2021/09/01 08:55:29;;;;;;;5.30;3.25;;;;;;;22.40;52.04;103348.41;5071569;28;20028;-65
2021/09/01 08:57:55;;;;;;;7.05;3.13;;;;;;;22.41;51.98;103362.66;5088665;28;20032;-65
2021/09/01 09:00:20;;;;;;;5.95;3.05;;;;;;;22.40;52.30;103353.75;5089434;28;21348;-66
2021/09/01 09:02:53;;;;;;;5.82;3.25;;;;;;;22.39;52.02;103367.28;5071932;28;20629;-65
2021/09/01 09:05:28;;;;;;;5.63;3.15;;;;;;;22.41;51.98;103365.31;5089270;28;20209;-65
2021/09/01 09:07:54;;;;;;;7.55;3.53;;;;;;;22.41;52.14;103365.31;5089588;28;20032;-66
2021/09/01 09:10:32;;;;;;;6.95;3.45;;;;;;;22.39;51.97;103367.28;5089714;28;20043;-66
2021/09/01 09:13:01;;;;;;;6.25;3.28;;;;;;;22.41;51.93;103368.00;5089397;28;20047;-65
2021/09/01 09:15:26;;;;;;;5.97;3.47;;;;;;;22.39;51.88;103361.94;5089604;28;20035;-65
2021/09/01 09:17:52;;;;;;;6.22;2.88;;;;;;;22.38;51.57;103366.44;5090164;28;20028;-65
2021/09/01 09:20:25;;;;;;;6.25;3.25;;;;;;;22.34;51.44;103367.75;5088983;28;20523;-66
2021/09/01 09:22:51;;;;;;;6.07;3.75;;;;;;;22.36;51.65;103362.25;5089989;28;20032;-65
2021/09/01 09:25:21;;;;;;;6.88;3.60;;;;;;;22.36;51.25;103356.91;5089132;28;20036;-66
2021/09/01 09:27:50;;;;;;;5.55;3.10;;;;;;;22.34;51.08;103369.59;5089058;28;20028;-66
2021/09/01 09:30:21;;;;;;;6.63;3.22;;;;;;;22.32;51.51;103369.75;5089103;28;20499;-65
2021/09/01 09:33:02;;;;;;;6.13;3.78;;;;;;;22.31;51.42;103361.88;5089700;28;20293;-66
2021/09/01 09:36:02;;;;;;;6.13;3.25;;;;;;;22.28;51.57;103357.69;5088621;28;20115;-65
2021/09/01 09:38:41;;;;;;;5.65;3.25;;;;;;;22.32;51.64;103363.56;5089442;28;20035;-66
2021/09/01 09:41:22;;;;;;;6.55;3.50;;;;;;;22.29;51.50;103350.50;5077315;28;20558;-65
2021/09/01 09:43:53;;;;;;;5.18;3.50;;;;;;;22.31;51.45;103359.19;5088731;28;20028;-66
2021/09/01 09:46:19;;;;;;;7.60;3.72;;;;;;;22.31;51.34;103362.72;5089317;28;20036;-65
2021/09/01 09:48:46;;;;;;;7.20;3.47;;;;;;;22.31;51.02;103356.53;5089311;28;20031;-65
2021/09/01 09:51:16;;;;;;;6.60;3.38;;;;;;;22.31;51.33;103361.88;5089159;28;20036;-66
2021/09/01 09:53:50;;;;;;;6.82;3.25;;;;;;;22.30;51.55;103362.88;5088888;28;20038;-66
2021/09/01 09:56:24;;;;;;;6.78;3.47;;;;;;;22.29;51.41;103361.19;5075781;28;20024;-66
2021/09/01 09:58:52;;;;;;;5.87;3.13;;;;;;;22.30;51.51;103362.88;5089219;28;20040;-66
2021/09/01 10:01:21;;;;;;;6.32;3.53;;;;;;;22.29;51.62;103361.19;5088631;28;20032;-65
2021/09/01 10:03:48;;;;;;;5.55;3.05;;;;;;;22.29;51.61;103367.38;5071133;28;20024;-65
2021/09/01 10:06:16;;;;;;;6.75;3.80;;;;;;;22.30;51.70;103358.34;5088615;28;20471;-66
2021/09/01 10:08:43;;;;;;;7.68;3.22;;;;;;;22.28;51.51;103357.69;5088797;28;20028;-65
2021/09/01 10:11:11;;;;;;;7.03;3.58;;;;;;;22.29;51.68;103351.34;5088838;28;20476;-66
2021/09/01 10:13:38;;;;;;;6.65;3.25;;;;;;;22.29;51.49;103347.81;5088170;28;20020;-65
2021/09/01 10:16:21;;;;;;;6.85;3.20;;;;;;;22.28;51.65;103340.78;5089135;28;20059;-65
2021/09/01 10:18:52;;;;;;;6.15;3.70;;;;;;;22.28;51.78;103343.47;5070879;28;20035;-66
2021/09/01 10:21:18;;;;;;;10.40;3.75;;;;;;;22.27;51.97;103342.63;5088639;28;20542;-65
2021/09/01 10:23:46;;;;;;;7.13;3.50;;;;;;;22.27;51.68;103334.59;5088824;28;20028;-65
2021/09/01 10:26:29;;;;;;;4.55;2.88;;;;;;;22.24;52.06;103339.41;5089203;28;20062;-66
2021/09/01 10:28:57;;;;;;;5.97;3.22;;;;;;;22.27;51.90;103339.13;5072015;28;20078;-65
2021/09/01 10:31:29;;;;;;;6.93;3.40;;;;;;;22.26;51.52;103340.13;5088956;28;20040;-66
2021/09/01 10:34:01;;;;;;;6.57;3.70;;;;;;;22.26;51.86;103340.13;5089056;28;20032;-65
2021/09/01 10:36:30;;;;;;;4.38;2.80;;;;;;;22.27;51.79;103341.78;5088253;28;20143;-66
2021/09/01 10:39:10;;;;;;;6.78;3.40;;;;;;;22.26;51.91;103351.66;5088223;28;20030;-65
2021/09/01 10:41:38;;;;;;;6.43;3.10;;;;;;;22.27;51.74;103347.97;5070149;28;20537;-65
2021/09/01 10:44:06;;;;;;;5.95;3.13;;;;;;;22.26;51.88;103346.28;5088560;28;20044;-65
2021/09/01 10:46:50;;;;;;;4.60;3.08;;;;;;;22.23;51.93;103349.25;5088741;28;20168;-65
2021/09/01 10:49:19;;;;;;;4.72;3.40;;;;;;;22.26;51.73;103350.81;5091435;28;20028;-65
2021/09/01 10:51:49;;;;;;;6.78;3.45;;;;;;;22.26;51.79;103350.81;5092456;28;20391;-66
2021/09/01 10:54:31;;;;;;;4.93;3.20;;;;;;;22.22;51.54;103355.59;5092666;28;20490;-66
2021/09/01 10:56:58;;;;;;;5.82;3.40;;;;;;;22.27;51.48;103355.16;5092241;28;20361;-65
2021/09/01 10:59:29;;;;;;;7.03;3.35;;;;;;;22.25;51.52;103349.09;5092216;28;20020;-66
2021/09/01 11:02:16;;;;;;;6.53;3.30;;;;;;;22.23;51.63;103351.09;5091783;28;20040;-65
2021/09/01 11:04:56;;;;;;;5.80;3.42;;;;;;;22.23;52.05;103348.41;5091972;28;20020;-65
2021/09/01 11:07:31;;;;;;;5.93;3.17;;;;;;;22.23;51.55;103351.09;5091995;28;20060;-65
2021/09/01 11:10:03;;;;;;;5.75;3.00;;;;;;;22.24;51.68;103364.31;5092068;28;20113;-66
2021/09/01 11:12:31;;;;;;;6.85;3.50;;;;;;;22.27;51.78;103363.19;5092006;28;20089;-65
2021/09/01 11:14:56;;;;;;;6.43;3.42;;;;;;;22.26;51.79;103366.84;5092140;28;20088;-65
2021/09/01 11:17:29;;;;;;;6.45;3.17;;;;;;;22.26;51.72;103372.19;5092097;28;20032;-66
2021/09/01 11:20:00;;;;;;;5.70;3.20;;;;;;;22.26;52.05;103361.50;5091754;28;20381;-66
2021/09/01 11:22:36;;;;;;;5.32;3.42;;;;;;;22.26;51.83;103366.84;5091565;28;20082;-65
2021/09/01 11:25:04;;;;;;;4.97;3.13;;;;;;;22.25;52.02;103362.47;5092012;28;20027;-66
2021/09/01 11:27:31;;;;;;;5.93;3.33;;;;;;;22.26;51.73;103359.66;5091459;28;20114;-66
2021/09/01 11:30:05;;;;;;;5.07;3.17;;;;;;;22.26;51.80;103362.34;5092037;28;20097;-66